createdAt,value
2024-04-05T00:01:28.094Z,6.3
2024-04-05T00:04:28.698Z,6.3
2024-04-05T00:06:29.244Z,6.3
2024-04-05T00:09:29.795Z,6.3
2024-04-05T00:11:30.389Z,6.3
2024-04-05T00:14:30.948Z,6.3
2024-04-05T00:16:31.590Z,6.3
2024-04-05T00:19:32.230Z,6.3
2024-04-05T00:21:32.840Z,6.3
2024-04-05T00:24:33.398Z,6.3
2024-04-05T00:26:33.961Z,6.3
2024-04-05T00:31:34.587Z,6.2
2024-04-05T00:34:35.225Z,6.1
2024-04-05T00:36:35.904Z,6.1
2024-04-05T00:39:36.444Z,6.2
2024-04-05T00:41:37.008Z,6.4
2024-04-05T00:47:37.558Z,6.4
2024-04-05T00:49:38.184Z,6.4
2024-04-05T00:52:38.847Z,6.5
2024-04-05T00:54:39.529Z,6.4
2024-04-05T00:57:40.082Z,6.4
2024-04-05T00:59:40.690Z,6.5
2024-04-05T01:02:41.302Z,6.5
2024-04-05T01:04:41.925Z,6.5
2024-04-05T01:07:42.602Z,6.6
2024-04-05T01:12:43.245Z,6.7
2024-04-05T01:14:43.810Z,6.6
2024-04-05T01:17:44.407Z,6.6
2024-04-05T01:20:44.984Z,6.6
2024-04-05T01:22:45.539Z,6.7
2024-04-05T01:25:46.133Z,6.7
2024-04-05T01:27:46.693Z,6.7
2024-04-05T01:30:47.254Z,6.6
2024-04-05T01:32:47.800Z,6.7
2024-04-05T01:35:48.367Z,6.6
2024-04-05T01:37:48.908Z,6.6
2024-04-05T01:40:49.455Z,6.7
2024-04-05T01:42:50.038Z,6.7
2024-04-05T01:45:50.643Z,6.7
2024-04-05T01:47:51.280Z,6.7
2024-04-05T01:53:51.862Z,6.7
2024-04-05T01:55:52.408Z,6.7
2024-04-05T01:58:53.024Z,6.7
2024-04-05T02:00:53.616Z,6.8
2024-04-05T02:03:54.199Z,6.7
2024-04-05T02:05:54.763Z,6.8
2024-04-05T02:08:55.328Z,6.7
2024-04-05T02:10:55.861Z,6.8
2024-04-05T02:13:56.449Z,6.8
2024-04-05T02:15:57.004Z,6.8
2024-04-05T02:18:57.551Z,6.8
2024-04-05T02:20:58.083Z,6.7
2024-04-05T02:23:58.687Z,6.7
2024-04-05T02:25:59.248Z,6.8
2024-04-05T02:28:59.797Z,6.8
2024-04-05T02:34:00.372Z,6.8
2024-04-05T02:37:00.919Z,6.8
2024-04-05T02:42:01.490Z,6.8
2024-04-05T02:44:02.108Z,6.8
2024-04-05T02:47:02.743Z,6.8
2024-04-05T02:49:03.288Z,6.8
2024-04-05T02:52:03.816Z,6.8
2024-04-05T02:54:04.398Z,6.8
2024-04-05T02:57:04.963Z,6.8
2024-04-05T02:59:05.551Z,6.7
2024-04-05T03:02:06.115Z,6.8
2024-04-05T03:04:06.680Z,6.8
2024-04-05T03:07:07.308Z,6.8
2024-04-05T03:09:08.064Z,6.8
2024-04-05T03:14:08.620Z,6.7
2024-04-05T03:17:09.217Z,6.7
2024-04-05T03:20:09.885Z,6.6
2024-04-05T03:22:10.625Z,6.6
2024-04-05T03:25:11.205Z,6.6
2024-04-05T03:27:11.763Z,6.6
2024-04-05T03:30:12.347Z,6.7
2024-04-05T03:32:12.907Z,6.6
2024-04-05T03:35:13.457Z,6.6
2024-04-05T03:37:14.016Z,6.6
2024-04-05T03:40:14.553Z,6.5
2024-04-05T03:42:15.116Z,6.5
2024-04-05T03:45:15.666Z,6.6
2024-04-05T03:47:16.248Z,6.6
2024-04-05T03:50:16.812Z,6.7
2024-04-05T03:55:17.402Z,6.7
2024-04-05T03:58:17.966Z,6.7
2024-04-05T04:00:18.513Z,6.7
2024-04-05T04:03:19.065Z,6.6
2024-04-05T04:05:19.660Z,6.6
2024-04-05T04:08:20.222Z,6.6
2024-04-05T04:10:20.772Z,6.6
2024-04-05T04:13:21.316Z,6.5
2024-04-05T04:15:21.858Z,6.5
2024-04-05T04:18:22.400Z,6.5
2024-04-05T04:20:22.929Z,6.4
2024-04-05T04:23:23.817Z,6.4
2024-04-05T04:25:29.127Z,6.5
2024-04-05T04:28:29.700Z,6.5
2024-04-05T04:30:30.266Z,6.4
2024-04-05T04:35:30.817Z,6.5
2024-04-05T04:38:31.428Z,6.5
2024-04-05T04:40:31.957Z,6.5
2024-04-05T04:43:32.551Z,6.5
2024-04-05T04:46:33.124Z,6.5
2024-04-05T04:48:33.719Z,6.5
2024-04-05T04:51:34.301Z,6.5
2024-04-05T04:53:34.960Z,6.5
2024-04-05T04:56:35.478Z,6.6
2024-04-05T05:01:36.043Z,6.6
2024-04-05T05:03:36.608Z,6.6
2024-04-05T05:06:37.167Z,6.6
2024-04-05T05:08:37.745Z,6.6
2024-04-05T05:11:38.350Z,6.7
2024-04-05T05:16:38.913Z,6.8
2024-04-05T05:19:39.495Z,6.9
2024-04-05T05:21:40.064Z,7.0
2024-04-05T05:24:40.945Z,7.1
2024-04-05T05:29:41.531Z,7.1
2024-04-05T05:31:42.099Z,7.2
2024-04-05T05:34:42.825Z,7.2
2024-04-05T05:36:43.566Z,7.2
2024-04-05T05:39:44.116Z,7.3
2024-04-05T05:44:44.680Z,7.4
2024-04-05T05:46:45.229Z,7.4
2024-04-05T05:49:45.836Z,7.5
2024-04-05T05:51:46.427Z,7.6
2024-04-05T05:57:47.016Z,7.5
2024-04-05T05:59:47.540Z,7.6
2024-04-05T06:02:48.110Z,7.6
2024-04-05T06:04:48.685Z,7.6
2024-04-05T06:07:49.346Z,7.6
2024-04-05T06:09:50.014Z,7.6
2024-04-05T06:12:50.570Z,7.6
2024-04-05T06:14:51.120Z,7.7
2024-04-05T06:17:51.684Z,7.6
2024-04-05T06:19:52.302Z,7.7
2024-04-05T06:22:53.156Z,7.8
2024-04-05T06:24:53.792Z,7.9
2024-04-05T06:27:54.356Z,7.9
2024-04-05T06:29:54.909Z,8.0
2024-04-05T06:32:55.637Z,8.0
2024-04-05T06:37:56.265Z,8.1
2024-04-05T06:40:56.853Z,8.2
2024-04-05T06:42:57.391Z,8.4
2024-04-05T06:45:57.984Z,8.4
2024-04-05T06:47:58.587Z,8.4
2024-04-05T06:50:59.151Z,8.5
2024-04-05T06:52:59.819Z,8.6
2024-04-05T06:56:00.520Z,8.6
2024-04-05T06:58:01.104Z,8.8
2024-04-05T07:01:01.664Z,8.8
2024-04-05T07:03:02.256Z,9.0
2024-04-05T07:06:02.816Z,9.2
2024-04-05T07:08:03.387Z,9.4
2024-04-05T07:11:04.027Z,9.6
2024-04-05T07:13:04.826Z,9.6
2024-04-05T07:19:08.276Z,9.6
2024-04-05T07:21:10.347Z,9.8
2024-04-05T07:24:11.010Z,9.7
2024-04-05T07:26:11.564Z,9.7
2024-04-05T07:29:12.107Z,9.6
2024-04-05T07:31:12.712Z,9.7
2024-04-05T07:34:13.263Z,9.9
2024-04-05T07:36:13.817Z,10.0
2024-04-05T07:39:14.383Z,10.2
2024-04-05T07:41:14.969Z,10.4
2024-04-05T07:44:15.509Z,10.6
2024-04-05T07:46:16.058Z,10.7
2024-04-05T07:49:16.659Z,10.6
2024-04-05T07:51:17.257Z,10.8
2024-04-05T07:54:17.803Z,10.9
2024-04-05T07:59:18.365Z,11.0
2024-04-05T08:02:18.918Z,11.2
2024-04-05T08:04:19.491Z,11.3
2024-04-05T08:07:20.041Z,11.2
2024-04-05T08:09:20.576Z,11.2
2024-04-05T08:12:21.115Z,11.2
2024-04-05T08:14:21.670Z,11.2
2024-04-05T08:17:22.238Z,11.3
2024-04-05T08:19:22.846Z,11.4
2024-04-05T08:22:23.399Z,11.5
2024-04-05T08:24:23.939Z,11.6
2024-04-05T08:27:24.532Z,11.6
2024-04-05T08:29:25.115Z,11.6
2024-04-05T08:32:25.692Z,11.7
2024-04-05T08:34:26.264Z,11.7
2024-04-05T08:40:26.847Z,11.6
2024-04-05T08:42:27.407Z,11.7
2024-04-05T08:45:28.355Z,11.7
2024-04-05T08:47:28.949Z,11.6
2024-04-05T08:50:29.554Z,11.7
2024-04-05T08:52:30.105Z,11.8
2024-04-05T08:55:30.631Z,11.9
2024-04-05T08:57:31.191Z,11.8
2024-04-05T09:00:31.744Z,11.7
2024-04-05T09:02:32.462Z,11.8
2024-04-05T09:05:33.086Z,11.8
2024-04-05T09:07:33.680Z,12.0
2024-04-05T09:10:34.230Z,12.0
2024-04-05T09:12:34.799Z,11.9
2024-04-05T09:15:35.353Z,12.0
2024-04-05T09:20:35.954Z,12.1
2024-04-05T09:25:36.525Z,12.3
2024-04-05T09:28:37.047Z,12.4
2024-04-05T09:30:37.655Z,12.5
2024-04-05T09:33:38.214Z,12.6
2024-04-05T09:35:38.818Z,12.8
2024-04-05T09:38:39.358Z,13.0
2024-04-05T09:40:39.938Z,13.1
2024-04-05T09:43:52.187Z,13.2
2024-04-05T09:46:21.514Z,13.2
2024-04-05T09:48:22.067Z,13.4
2024-04-05T09:51:22.637Z,13.6
2024-04-05T09:53:23.183Z,13.7
2024-04-05T09:56:23.729Z,14.0
2024-04-05T10:01:24.286Z,14.4
2024-04-05T10:04:24.834Z,14.4
2024-04-05T10:06:25.409Z,14.6
2024-04-05T10:09:26.244Z,14.5
2024-04-05T10:11:26.898Z,14.7
2024-04-05T10:14:27.418Z,14.8
2024-04-05T10:16:27.942Z,14.7
2024-04-05T10:19:28.513Z,14.7
2024-04-05T10:21:29.061Z,14.9
2024-04-05T10:24:29.628Z,15.2
2024-04-05T10:26:30.304Z,15.6
2024-04-05T10:29:30.835Z,15.7
2024-04-05T10:31:31.386Z,16.1
2024-04-05T10:34:31.931Z,16.4
2024-04-05T10:36:32.475Z,16.3
2024-04-05T10:41:33.070Z,16.5
2024-04-05T10:44:33.711Z,16.8
2024-04-05T10:46:34.402Z,16.6
2024-04-05T10:49:34.936Z,16.7
2024-04-05T10:52:35.493Z,16.6
2024-04-05T10:54:36.042Z,16.8
2024-04-05T10:57:36.612Z,17.0
2024-04-05T10:59:37.203Z,17.1
2024-04-05T11:02:37.857Z,17.2
2024-04-05T11:04:38.399Z,17.3
2024-04-05T11:07:38.969Z,17.3
2024-04-05T11:09:39.510Z,17.4
2024-04-05T11:12:40.106Z,17.8
2024-04-05T11:14:40.668Z,17.7
2024-04-05T11:17:41.252Z,17.8
2024-04-05T11:22:41.811Z,18.0
2024-04-05T11:24:42.396Z,18.1
2024-04-05T11:27:42.960Z,18.2
2024-04-05T11:30:43.924Z,18.2
2024-04-05T11:32:44.794Z,18.4
2024-04-05T11:35:45.360Z,18.5
2024-04-05T11:37:47.347Z,18.7
2024-04-05T11:40:51.074Z,18.5
2024-04-05T11:42:51.621Z,18.6
2024-04-05T11:45:52.170Z,18.8
2024-04-05T11:47:52.765Z,19.0
2024-04-05T11:50:53.363Z,19.2
2024-04-05T11:52:53.923Z,19.2
2024-04-05T11:55:54.502Z,19.1
2024-04-05T12:02:55.181Z,19.3
2024-04-05T12:05:55.846Z,19.5
2024-04-05T12:07:56.467Z,19.3
2024-04-05T12:10:57.061Z,19.3
2024-04-05T12:12:57.670Z,19.2
2024-04-05T12:15:58.276Z,19.5
2024-04-05T12:18:58.962Z,19.7
2024-04-05T12:20:59.531Z,20.0
2024-04-05T12:24:00.072Z,20.2
2024-04-05T12:26:00.643Z,20.2
2024-04-05T12:29:01.375Z,20.3
2024-04-05T12:31:02.177Z,20.4
2024-04-05T12:34:02.727Z,20.4
2024-04-05T12:36:03.307Z,20.4
2024-04-05T12:39:03.880Z,20.4
2024-04-05T12:44:04.459Z,20.3
2024-04-05T12:46:05.115Z,20.4
2024-04-05T12:49:05.701Z,20.3
2024-04-05T12:52:06.258Z,20.4
2024-04-05T12:54:06.800Z,20.8
2024-04-05T12:57:07.352Z,20.9
2024-04-05T12:59:07.942Z,21.0
2024-04-05T13:02:08.544Z,21.2
2024-04-05T13:04:09.109Z,20.8
2024-04-05T13:07:09.683Z,21.0
2024-04-05T13:09:10.244Z,21.1
2024-04-05T13:12:10.787Z,21.2
2024-04-05T13:14:11.318Z,21.5
2024-04-05T13:17:11.958Z,21.4
2024-04-05T13:19:12.496Z,21.5
2024-04-05T13:24:13.036Z,21.4
2024-04-05T13:27:13.583Z,21.2
2024-04-05T13:30:14.138Z,21.2
2024-04-05T13:32:14.699Z,21.3
2024-04-05T13:35:15.365Z,21.0
2024-04-05T13:37:15.943Z,21.2
2024-04-05T13:40:16.504Z,21.0
2024-04-05T13:42:17.047Z,20.9
2024-04-05T13:45:17.643Z,21.0
2024-04-05T13:47:18.222Z,21.1
2024-04-05T13:50:21.113Z,21.5
2024-04-05T13:52:22.194Z,21.6
2024-04-05T13:55:22.740Z,21.4
2024-04-05T13:57:23.341Z,21.1
2024-04-05T14:00:23.898Z,20.8
2024-04-05T14:05:24.477Z,20.6
2024-04-05T14:07:25.101Z,20.5
2024-04-05T14:10:25.749Z,20.5
2024-04-05T14:12:26.322Z,20.4
2024-04-05T14:15:26.856Z,20.4
2024-04-05T14:18:27.410Z,20.3
2024-04-05T14:20:28.058Z,20.3
2024-04-05T14:23:28.806Z,20.2
2024-04-05T14:28:29.330Z,20.2
2024-04-05T14:30:29.863Z,20.1
2024-04-05T14:33:30.639Z,20.1
2024-04-05T14:35:38.542Z,20.0
2024-04-05T14:38:39.108Z,20.0
2024-04-05T14:40:39.658Z,20.0
2024-04-05T14:45:40.250Z,20.0
2024-04-05T14:48:40.812Z,20.0
2024-04-05T14:50:42.360Z,19.9
2024-04-05T14:53:48.054Z,19.9
2024-04-05T14:55:48.576Z,19.8
2024-04-05T14:58:49.131Z,19.7
2024-04-05T15:00:49.748Z,19.6
2024-04-05T15:03:50.371Z,19.7
2024-04-05T15:05:50.919Z,19.7
2024-04-05T15:08:51.477Z,19.6
2024-04-05T15:11:52.031Z,19.5
2024-04-05T15:13:52.605Z,19.5
2024-04-05T15:16:53.241Z,19.4
2024-04-05T15:18:53.782Z,19.1
2024-04-05T15:21:54.344Z,19.2
2024-04-05T15:26:54.929Z,19.3
2024-04-05T15:28:55.536Z,19.2
2024-04-05T15:31:56.086Z,19.1
2024-04-05T15:33:56.758Z,19.2
2024-04-05T15:36:57.303Z,19.2
2024-04-05T15:38:58.281Z,19.2
2024-04-05T15:41:58.864Z,19.2
2024-04-05T15:44:59.404Z,19.2
2024-04-05T15:46:59.966Z,19.2
2024-04-05T15:50:00.523Z,18.9
2024-04-05T15:52:01.410Z,18.8
2024-04-05T15:55:01.986Z,18.9
2024-04-05T15:57:02.530Z,18.8
2024-04-05T16:00:03.077Z,18.6
2024-04-05T16:02:03.686Z,18.6
2024-04-05T16:07:04.339Z,18.4
2024-04-05T16:10:04.886Z,18.4
2024-04-05T16:12:05.524Z,18.5
2024-04-05T16:15:06.224Z,18.4
2024-04-05T16:17:06.854Z,18.4
2024-04-05T16:20:07.655Z,18.2
2024-04-05T16:22:08.451Z,18.2
2024-04-05T16:25:09.086Z,18.2
2024-04-05T16:27:09.661Z,18.2
2024-04-05T16:30:10.214Z,18.2
2024-04-05T16:33:10.796Z,18.2
2024-04-05T16:35:11.382Z,18.0
2024-04-05T16:38:12.094Z,18.0
2024-04-05T16:40:12.823Z,17.9
2024-04-05T16:43:13.410Z,17.8
2024-04-05T16:48:13.956Z,17.9
2024-04-05T16:50:17.178Z,17.9
2024-04-05T16:53:18.404Z,17.8
2024-04-05T16:55:18.960Z,17.6
2024-04-05T16:58:19.553Z,17.7
2024-04-05T17:00:20.117Z,17.8
2024-04-05T17:03:20.686Z,17.8
2024-04-05T17:06:21.270Z,17.6
2024-04-05T17:08:21.858Z,17.6
2024-04-05T17:10:22.429Z,17.5
2024-04-05T17:13:22.984Z,17.5
2024-04-05T17:16:23.525Z,17.5
2024-04-05T17:18:24.135Z,17.5
2024-04-05T17:21:24.680Z,17.4
2024-04-05T17:31:25.243Z,16.9
2024-04-05T17:33:26.663Z,16.8
2024-04-05T17:36:30.480Z,16.8
2024-04-05T17:38:31.060Z,17.1
2024-04-05T17:41:31.610Z,17.2
2024-04-05T17:43:32.179Z,17.2
2024-04-05T17:46:32.744Z,17.1
2024-04-05T17:49:33.305Z,17.2
2024-04-05T17:51:33.866Z,17.2
2024-04-05T17:54:34.447Z,17.0
2024-04-05T17:56:35.024Z,16.9
2024-04-05T17:59:35.596Z,16.9
2024-04-05T18:01:36.193Z,16.8
2024-04-05T18:04:36.763Z,16.6
2024-04-05T18:09:37.351Z,16.5
2024-04-05T18:11:37.907Z,16.3
2024-04-05T18:14:38.712Z,16.2
2024-04-05T18:16:39.307Z,16.0
2024-04-05T18:19:39.866Z,15.8
2024-04-05T18:21:40.416Z,15.7
2024-04-05T18:24:40.961Z,15.6
2024-04-05T18:26:41.501Z,15.4
2024-04-05T18:29:43.826Z,15.2
2024-04-05T18:31:47.711Z,15.2
2024-04-05T18:34:48.317Z,15.1
2024-04-05T18:37:48.923Z,15.0
2024-04-05T18:39:49.491Z,14.8
2024-04-05T18:42:50.054Z,14.7
2024-04-05T18:44:50.604Z,14.6
2024-04-05T18:49:51.197Z,14.4
2024-04-05T18:52:51.744Z,14.2
2024-04-05T18:54:52.317Z,13.9
2024-04-05T18:57:53.339Z,13.7
2024-04-05T18:59:53.891Z,13.5
2024-04-05T19:02:54.558Z,13.3
2024-04-05T19:07:55.119Z,12.9
2024-04-05T19:09:55.697Z,12.7
2024-04-05T19:12:56.337Z,12.9
2024-04-05T19:14:56.984Z,12.8
2024-04-05T19:17:57.534Z,12.8
2024-04-05T19:19:58.091Z,12.7
2024-04-05T19:22:58.669Z,12.4
2024-04-05T19:25:59.253Z,12.2
2024-04-05T19:30:59.813Z,12.0
2024-04-05T19:33:00.374Z,12.0
2024-04-05T19:36:00.933Z,12.1
2024-04-05T19:38:01.520Z,12.0
2024-04-05T19:41:02.086Z,12.2
2024-04-05T19:43:02.758Z,12.1
2024-04-05T19:46:03.282Z,11.9
2024-04-05T19:48:03.839Z,11.7
2024-04-05T19:51:04.380Z,11.5
2024-04-05T19:53:04.953Z,11.4
2024-04-05T19:56:05.522Z,11.4
2024-04-05T19:59:06.073Z,11.5
2024-04-05T20:01:06.639Z,11.4
2024-04-05T20:04:07.243Z,11.3
2024-04-05T20:06:07.811Z,11.2
2024-04-05T20:11:09.532Z,10.8
2024-04-05T20:14:15.675Z,10.7
2024-04-05T20:16:16.310Z,10.5
2024-04-05T20:19:16.867Z,10.2
2024-04-05T20:21:17.396Z,10.2
2024-04-05T20:24:18.009Z,10.2
2024-04-05T20:26:18.700Z,10.1
2024-04-05T20:29:19.533Z,10.0
2024-04-05T20:31:20.268Z,10.0
2024-04-05T20:34:20.807Z,9.9
2024-04-05T20:36:21.430Z,9.9
2024-04-05T20:39:21.988Z,10.1
2024-04-05T20:41:22.530Z,10.2
2024-04-05T20:44:23.085Z,10.4
2024-04-05T20:46:23.636Z,10.3
2024-04-05T20:52:24.197Z,10.2
2024-04-05T20:54:24.752Z,10.1
2024-04-05T20:57:25.320Z,10.1
2024-04-05T20:59:25.849Z,10.1
2024-04-05T21:02:26.660Z,10.0
2024-04-05T21:04:27.191Z,10.0
2024-04-05T21:07:27.743Z,10.0
2024-04-05T21:09:28.330Z,10.1
2024-04-05T21:12:29.094Z,10.2
2024-04-05T21:14:29.618Z,10.2
2024-04-05T21:17:30.185Z,10.2
2024-04-05T21:19:30.823Z,10.2
2024-04-05T21:22:31.410Z,10.2
2024-04-05T21:24:32.093Z,10.2
2024-04-05T21:27:32.758Z,10.2
2024-04-05T21:32:33.336Z,10.1
2024-04-05T21:35:34.046Z,10.0
2024-04-05T21:37:34.627Z,10.0
2024-04-05T21:40:35.236Z,10.0
2024-04-05T21:42:35.815Z,9.9
2024-04-05T21:45:36.347Z,9.8
2024-04-05T21:47:36.923Z,9.7
2024-04-05T21:52:47.042Z,9.8
2024-04-05T21:55:47.611Z,9.7
2024-04-05T21:57:48.220Z,9.7
2024-04-05T22:00:48.751Z,9.7
2024-04-05T22:02:49.347Z,9.7
2024-04-05T22:05:49.936Z,9.6
2024-04-05T22:07:50.520Z,9.6
2024-04-05T22:13:51.101Z,9.5
2024-04-05T22:15:51.716Z,9.4
2024-04-05T22:18:52.377Z,9.3
2024-04-05T22:20:52.953Z,9.2
2024-04-05T22:23:53.515Z,9.2
2024-04-05T22:25:54.088Z,9.0
2024-04-05T22:28:54.763Z,8.9
2024-04-05T22:30:55.382Z,8.8
2024-04-05T22:33:55.939Z,8.7
2024-04-05T22:35:56.472Z,8.7
2024-04-05T22:38:57.020Z,8.6
2024-04-05T22:40:57.562Z,8.7
2024-04-05T22:43:58.144Z,8.7
2024-04-05T22:45:58.695Z,8.8
2024-04-05T22:48:59.283Z,8.8
2024-04-05T22:53:59.843Z,8.9
2024-04-05T22:56:00.413Z,8.9
2024-04-05T22:59:00.952Z,9.0
2024-04-05T23:02:01.512Z,9.0
2024-04-05T23:04:02.087Z,9.0
2024-04-05T23:07:02.686Z,9.0
2024-04-05T23:09:03.273Z,9.0
2024-04-05T23:12:03.851Z,9.1
2024-04-05T23:14:04.426Z,9.1
2024-04-05T23:17:05.009Z,9.1
2024-04-05T23:19:05.577Z,9.1
2024-04-05T23:22:06.113Z,9.1
2024-04-05T23:24:06.713Z,9.2
2024-04-05T23:27:07.279Z,9.2
2024-04-05T23:29:07.885Z,9.2
2024-04-05T23:35:08.439Z,9.2
2024-04-05T23:37:09.007Z,9.2
2024-04-05T23:40:09.553Z,9.2
2024-04-05T23:42:10.132Z,9.2
2024-04-05T23:45:10.681Z,9.2
2024-04-05T23:47:11.239Z,9.2
2024-04-05T23:50:11.780Z,9.2
2024-04-05T23:52:12.353Z,9.2
2024-04-05T23:55:12.910Z,9.1
2024-04-05T23:57:13.498Z,9.1
